Time;durP1;ratioP1;P1;durP2;ratioP2;P2;SDS_P1;SDS_P2;PMS_P1;PMS_P2;Temp;Humidity;BMP_temperature;BMP_pressure;BME280_temperature;BME280_humidity;BME280_pressure;Samples;Min_cycle;Max_cycle;Signal;HPM_P1;HPM_P2
2022/03/01 00:01:33;;;;;;;16.88;10.50;;;3.40;67.70;;;;;;5112787;28;20297;-68
2022/03/01 00:04:00;;;;;;;16.40;10.00;;;3.30;67.80;;;;;;5112630;28;20274;-68
2022/03/01 00:06:27;;;;;;;15.48;10.70;;;3.30;69.00;;;;;;5112803;28;20210;-67
2022/03/01 00:08:54;;;;;;;13.40;10.13;;;3.20;69.20;;;;;;5112562;28;20314;-67
2022/03/01 00:11:23;;;;;;;16.70;10.85;;;3.20;68.30;;;;;;5112734;28;20254;-66
2022/03/01 00:13:50;;;;;;;19.17;11.35;;;3.30;68.90;;;;;;5112411;28;20224;-66
2022/03/01 00:16:17;;;;;;;17.25;10.88;;;3.30;69.10;;;;;;5112854;28;20296;-66
2022/03/01 00:18:44;;;;;;;18.05;10.63;;;3.30;69.80;;;;;;5112403;28;20239;-66
2022/03/01 00:21:11;;;;;;;16.75;10.70;;;3.30;69.10;;;;;;5112450;28;20233;-66
2022/03/01 00:23:38;;;;;;;18.08;10.40;;;3.30;70.10;;;;;;5112716;28;20560;-66
2022/03/01 00:26:05;;;;;;;16.45;11.98;;;3.30;69.40;;;;;;5112237;28;20209;-66
2022/03/01 00:28:33;;;;;;;13.75;10.50;;;3.30;69.50;;;;;;5112216;28;20225;-66
2022/03/01 00:31:00;;;;;;;16.63;10.30;;;3.20;69.60;;;;;;5112983;28;20220;-66
2022/03/01 00:33:27;;;;;;;14.43;11.07;;;3.10;70.00;;;;;;5112374;28;20219;-66
2022/03/01 00:35:55;;;;;;;15.52;11.57;;;3.20;70.30;;;;;;5112379;28;20209;-67
2022/03/01 00:38:21;;;;;;;17.40;11.73;;;3.10;69.60;;;;;;5112041;28;20221;-67
2022/03/01 00:40:48;;;;;;;22.02;12.50;;;3.10;70.20;;;;;;5111868;28;20205;-67
2022/03/01 00:43:16;;;;;;;17.73;11.55;;;3.10;70.60;;;;;;5112736;28;20222;-67
2022/03/01 00:45:44;;;;;;;17.00;10.90;;;3.10;70.40;;;;;;5113826;28;20197;-67
2022/03/01 00:48:11;;;;;;;19.10;11.95;;;3.10;70.70;;;;;;5115879;27;20233;-67
2022/03/01 00:50:38;;;;;;;17.95;11.35;;;3.00;70.60;;;;;;5115755;28;20202;-67
2022/03/01 00:53:05;;;;;;;18.50;11.52;;;3.00;71.00;;;;;;5116069;28;20197;-67
2022/03/01 00:55:32;;;;;;;18.52;11.23;;;3.00;71.00;;;;;;5115613;28;20202;-67
2022/03/01 00:57:58;;;;;;;16.38;11.43;;;3.00;71.50;;;;;;5115944;27;20316;-67
2022/03/01 01:00:25;;;;;;;18.20;11.93;;;3.00;71.70;;;;;;5115570;28;20211;-65
2022/03/01 01:02:53;;;;;;;15.90;11.13;;;3.00;71.70;;;;;;5116007;28;20598;-66
2022/03/01 01:05:20;;;;;;;18.77;11.35;;;2.90;71.50;;;;;;5115819;28;20586;-66
2022/03/01 01:07:48;;;;;;;21.55;11.38;;;2.90;71.90;;;;;;5115549;28;20249;-66
2022/03/01 01:10:14;;;;;;;16.38;11.30;;;2.90;72.30;;;;;;5115768;28;20269;-66
2022/03/01 01:12:42;;;;;;;15.43;10.27;;;2.80;72.40;;;;;;5116216;28;20258;-66
2022/03/01 01:15:10;;;;;;;18.63;10.93;;;2.80;72.90;;;;;;5115667;28;20284;-66
2022/03/01 01:17:37;;;;;;;16.73;11.57;;;2.70;73.80;;;;;;5115429;28;20229;-66
2022/03/01 01:20:07;;;;;;;17.42;12.18;;;2.70;73.80;;;;;;5115379;28;20582;-66
2022/03/01 01:22:40;;;;;;;17.25;11.18;;;2.60;73.80;;;;;;5115397;28;20224;-66
2022/03/01 01:25:09;;;;;;;18.27;12.00;;;2.60;74.00;;;;;;5115495;27;20197;-65
2022/03/01 01:27:36;;;;;;;16.60;11.55;;;2.50;74.30;;;;;;5114943;28;20229;-66
2022/03/01 01:30:04;;;;;;;19.33;12.10;;;2.50;74.50;;;;;;5115201;28;20205;-66
2022/03/01 01:32:31;;;;;;;16.20;11.27;;;2.50;74.80;;;;;;5115512;28;20201;-66
2022/03/01 01:34:58;;;;;;;17.80;11.55;;;2.40;75.20;;;;;;5115104;28;20292;-66
2022/03/01 01:37:26;;;;;;;19.08;12.15;;;2.40;75.70;;;;;;5114795;28;20222;-66
2022/03/01 01:39:53;;;;;;;16.77;11.32;;;2.40;75.80;;;;;;5114973;28;20203;-66
2022/03/01 01:42:19;;;;;;;15.98;10.90;;;2.30;76.00;;;;;;5115005;28;20201;-66
2022/03/01 01:44:46;;;;;;;21.00;12.55;;;2.40;76.20;;;;;;5115243;28;20544;-67
2022/03/01 01:47:13;;;;;;;15.55;10.85;;;2.30;76.20;;;;;;5114630;28;20201;-66
2022/03/01 01:49:40;;;;;;;16.75;11.15;;;2.20;76.20;;;;;;5115767;28;20205;-66
2022/03/01 01:52:07;;;;;;;18.70;11.35;;;2.20;76.90;;;;;;5116147;28;20201;-66
2022/03/01 01:54:36;;;;;;;16.83;10.98;;;2.20;77.10;;;;;;5116172;28;20201;-66
2022/03/01 01:57:14;;;;;;;16.73;11.38;;;2.30;77.30;;;;;;5115537;28;20202;-66
2022/03/01 01:59:41;;;;;;;15.60;11.20;;;2.20;77.60;;;;;;5115401;28;20647;-66
2022/03/01 02:02:10;;;;;;;16.85;11.05;;;2.20;77.70;;;;;;5115699;28;20766;-66
2022/03/01 02:04:36;;;;;;;19.67;11.40;;;2.20;78.00;;;;;;5115591;27;20225;-66
2022/03/01 02:07:04;;;;;;;18.67;11.23;;;2.10;78.90;;;;;;5115612;28;20247;-67
2022/03/01 02:09:30;;;;;;;17.45;11.30;;;2.10;79.10;;;;;;5115687;28;20226;-66
2022/03/01 02:11:58;;;;;;;17.65;12.25;;;2.10;78.60;;;;;;5115344;27;20198;-66
2022/03/01 02:14:26;;;;;;;15.18;9.75;;;2.10;79.20;;;;;;5115443;28;20197;-66
2022/03/01 02:16:53;;;;;;;17.80;10.60;;;2.10;79.20;;;;;;5115233;28;20655;-66
2022/03/01 02:19:20;;;;;;;18.10;11.32;;;2.10;78.90;;;;;;5115420;28;20575;-67
2022/03/01 02:21:50;;;;;;;21.35;12.75;;;2.10;79.30;;;;;;5115253;28;20201;-66
2022/03/01 02:24:17;;;;;;;17.38;10.80;;;2.10;79.70;;;;;;5115190;28;20221;-67
2022/03/01 02:26:44;;;;;;;15.50;10.38;;;2.10;79.40;;;;;;5115257;28;20213;-67
2022/03/01 02:29:11;;;;;;;16.30;10.75;;;2.10;79.30;;;;;;5115170;28;20257;-66
2022/03/01 02:31:38;;;;;;;18.25;11.38;;;2.10;79.10;;;;;;5114746;28;20201;-66
2022/03/01 02:34:05;;;;;;;17.20;11.10;;;2.10;79.10;;;;;;5115128;28;20200;-67
2022/03/01 02:36:32;;;;;;;20.63;11.75;;;2.10;78.90;;;;;;5115102;28;20671;-66
2022/03/01 02:39:00;;;;;;;17.15;10.68;;;2.10;78.90;;;;;;5115197;28;20583;-66
2022/03/01 02:41:27;;;;;;;13.23;9.32;;;2.10;78.90;;;;;;5114690;28;20204;-66
2022/03/01 02:43:54;;;;;;;15.10;10.45;;;2.10;78.90;;;;;;5114634;28;20578;-66
2022/03/01 02:46:21;;;;;;;15.07;11.52;;;2.10;79.10;;;;;;5115211;28;20197;-66
2022/03/01 02:48:48;;;;;;;17.60;11.52;;;2.10;79.10;;;;;;5114955;28;20307;-67
2022/03/01 02:51:14;;;;;;;15.40;10.77;;;2.00;78.90;;;;;;5114940;28;20201;-66
2022/03/01 02:53:41;;;;;;;18.20;11.85;;;1.90;79.10;;;;;;5115265;28;20201;-66
2022/03/01 02:56:10;;;;;;;16.10;11.32;;;1.90;79.50;;;;;;5115506;28;20292;-66
2022/03/01 02:58:37;;;;;;;18.10;10.60;;;1.90;80.10;;;;;;5115251;28;20223;-66
2022/03/01 03:01:03;;;;;;;16.85;10.88;;;1.90;80.20;;;;;;5115054;28;20293;-66
2022/03/01 03:03:30;;;;;;;19.33;11.65;;;1.90;80.20;;;;;;5115035;28;20312;-66
2022/03/01 03:05:57;;;;;;;18.65;11.07;;;1.90;80.40;;;;;;5115092;28;20201;-66
2022/03/01 03:08:24;;;;;;;16.80;10.70;;;1.80;80.40;;;;;;5113661;28;20732;-66
2022/03/01 03:10:51;;;;;;;14.55;10.57;;;1.90;80.40;;;;;;5114394;28;20233;-66
2022/03/01 03:13:20;;;;;;;15.52;9.77;;;1.90;80.50;;;;;;5114504;28;20289;-66
2022/03/01 03:15:46;;;;;;;16.45;11.15;;;1.90;80.60;;;;;;5114414;28;20201;-66
2022/03/01 03:18:13;;;;;;;17.38;10.32;;;1.90;80.40;;;;;;5114380;28;20312;-66
2022/03/01 03:20:40;;;;;;;16.05;11.20;;;1.90;80.40;;;;;;5114285;28;20227;-66
2022/03/01 03:23:08;;;;;;;16.95;10.88;;;1.90;80.60;;;;;;5114171;28;20218;-66
2022/03/01 03:25:35;;;;;;;16.77;11.38;;;1.90;80.70;;;;;;5114179;28;20202;-66
2022/03/01 03:28:02;;;;;;;16.55;11.13;;;2.00;80.70;;;;;;5114512;28;20649;-66
2022/03/01 03:30:30;;;;;;;15.57;10.65;;;1.90;80.20;;;;;;5113980;28;20197;-67
2022/03/01 03:32:57;;;;;;;18.55;10.00;;;1.90;80.20;;;;;;5114095;28;20201;-66
2022/03/01 03:35:24;;;;;;;16.95;11.13;;;1.90;80.00;;;;;;5114080;28;20300;-66
2022/03/01 03:37:51;;;;;;;16.60;11.43;;;1.90;80.10;;;;;;5114038;28;20217;-66
2022/03/01 03:40:17;;;;;;;15.77;10.10;;;1.80;79.80;;;;;;5114017;28;20201;-66
2022/03/01 03:42:45;;;;;;;18.70;11.38;;;1.90;79.80;;;;;;5114240;28;20209;-66
2022/03/01 03:45:13;;;;;;;17.13;10.80;;;1.90;79.80;;;;;;5114055;28;20228;-66
2022/03/01 03:47:42;;;;;;;15.10;10.55;;;1.90;79.70;;;;;;5114082;28;20312;-66
2022/03/01 03:50:10;;;;;;;17.83;11.13;;;1.90;79.90;;;;;;5113752;28;20692;-66
2022/03/01 03:52:37;;;;;;;18.92;11.60;;;1.90;80.40;;;;;;5113766;28;20648;-66
2022/03/01 03:55:05;;;;;;;16.90;10.77;;;1.90;80.20;;;;;;5113973;28;20224;-66
2022/03/01 03:57:33;;;;;;;17.63;10.35;;;1.80;80.20;;;;;;5113880;28;20228;-66
2022/03/01 04:00:01;;;;;;;15.45;10.98;;;1.80;80.10;;;;;;5113923;28;20254;-66
2022/03/01 04:02:27;;;;;;;19.50;11.30;;;1.80;80.00;;;;;;5114086;28;20310;-66
2022/03/01 04:04:56;;;;;;;16.13;10.55;;;1.80;80.00;;;;;;5113796;28;20222;-67
2022/03/01 04:07:23;;;;;;;14.25;10.38;;;1.80;80.20;;;;;;5113576;28;20232;-67
2022/03/01 04:09:49;;;;;;;18.48;12.10;;;1.70;81.00;;;;;;5113989;28;20616;-66
2022/03/01 04:12:16;;;;;;;19.60;11.95;;;1.70;80.30;;;;;;5114025;28;20198;-67
2022/03/01 04:14:43;;;;;;;15.80;9.75;;;1.70;80.60;;;;;;5113787;28;20674;-66
2022/03/01 04:17:10;;;;;;;16.80;10.55;;;1.70;80.60;;;;;;5113745;28;20197;-66
2022/03/01 04:19:37;;;;;;;17.02;10.60;;;1.70;80.40;;;;;;5115126;28;20201;-66
2022/03/01 04:22:06;;;;;;;16.98;11.40;;;1.60;80.50;;;;;;5117449;28;20884;-66
2022/03/01 04:24:33;;;;;;;15.25;10.20;;;1.70;80.50;;;;;;5118093;27;20316;-66
2022/03/01 04:27:00;;;;;;;18.42;11.75;;;1.60;80.30;;;;;;5117504;28;20214;-66
2022/03/01 04:29:26;;;;;;;16.95;11.20;;;1.60;80.70;;;;;;5117797;28;20575;-66
2022/03/01 04:31:53;;;;;;;16.42;10.80;;;1.60;80.90;;;;;;5117424;28;20236;-66
2022/03/01 04:34:20;;;;;;;20.10;10.77;;;1.50;80.70;;;;;;5117600;28;20280;-66
2022/03/01 04:36:47;;;;;;;19.67;11.38;;;1.50;80.80;;;;;;5117534;28;20205;-67
2022/03/01 04:39:15;;;;;;;13.80;9.93;;;1.50;80.70;;;;;;5117333;28;20636;-66
2022/03/01 04:41:42;;;;;;;16.00;10.38;;;1.50;80.70;;;;;;5117297;28;20208;-67
2022/03/01 04:44:09;;;;;;;15.02;10.20;;;1.50;81.00;;;;;;5117392;28;20221;-66
2022/03/01 04:46:36;;;;;;;18.13;11.15;;;1.40;81.00;;;;;;5117339;27;20630;-66
2022/03/01 04:49:03;;;;;;;17.25;10.60;;;1.40;81.40;;;;;;5117306;28;20227;-66
2022/03/01 04:51:30;;;;;;;23.42;13.02;;;1.40;81.60;;;;;;5117016;28;20205;-66
2022/03/01 04:53:57;;;;;;;16.90;10.98;;;1.40;81.90;;;;;;5116856;28;20686;-66
2022/03/01 04:56:25;;;;;;;19.67;10.85;;;1.30;81.90;;;;;;5116984;27;20201;-66
2022/03/01 04:58:53;;;;;;;19.48;11.75;;;1.30;81.50;;;;;;5117745;28;20687;-66
2022/03/01 05:01:20;;;;;;;16.73;10.02;;;1.30;81.50;;;;;;5116956;28;20198;-66
2022/03/01 05:03:47;;;;;;;17.42;10.77;;;1.30;81.70;;;;;;5116753;28;20224;-66
2022/03/01 05:06:14;;;;;;;16.52;10.52;;;1.30;81.80;;;;;;5116916;28;20202;-66
2022/03/01 05:08:40;;;;;;;19.17;10.27;;;1.40;82.00;;;;;;5116882;28;20311;-66
2022/03/01 05:11:07;;;;;;;18.23;10.30;;;1.40;81.50;;;;;;5116582;27;20201;-66
2022/03/01 05:13:36;;;;;;;16.52;11.13;;;1.40;80.90;;;;;;5116687;28;20201;-66
2022/03/01 05:16:02;;;;;;;17.02;10.68;;;1.40;80.50;;;;;;5116700;27;20197;-66
2022/03/01 05:18:29;;;;;;;17.23;11.50;;;1.40;80.60;;;;;;5116776;28;20232;-66
2022/03/01 05:20:56;;;;;;;16.67;10.45;;;1.40;81.00;;;;;;5116475;28;20208;-66
2022/03/01 05:23:23;;;;;;;19.17;10.43;;;1.40;81.50;;;;;;5116495;28;20205;-66
2022/03/01 05:25:50;;;;;;;20.23;11.13;;;1.40;82.30;;;;;;5116617;28;20206;-66
2022/03/01 05:28:16;;;;;;;17.00;10.55;;;1.40;81.30;;;;;;5116447;28;20233;-66
2022/03/01 05:30:45;;;;;;;13.23;9.48;;;1.40;81.20;;;;;;5115765;28;20204;-66
2022/03/01 05:33:11;;;;;;;15.20;10.40;;;1.40;80.80;;;;;;5116359;28;20293;-66
2022/03/01 05:35:38;;;;;;;17.25;10.32;;;1.30;80.60;;;;;;5116234;28;20693;-66
2022/03/01 05:38:07;;;;;;;15.57;10.55;;;1.30;81.20;;;;;;5116226;28;20221;-66
2022/03/01 05:40:34;;;;;;;15.10;9.85;;;1.40;80.60;;;;;;5116129;28;20231;-66
2022/03/01 05:43:01;;;;;;;15.55;10.10;;;1.30;80.40;;;;;;5116095;28;20544;-66
2022/03/01 05:45:28;;;;;;;20.55;11.90;;;1.30;80.30;;;;;;5116186;28;20578;-66
2022/03/01 05:47:57;;;;;;;17.02;10.35;;;1.20;80.70;;;;;;5116062;28;20253;-66
2022/03/01 05:50:26;;;;;;;17.30;10.80;;;1.20;80.70;;;;;;5115684;28;20201;-66
2022/03/01 05:52:53;;;;;;;14.80;10.98;;;1.20;81.10;;;;;;5116213;28;20204;-66
2022/03/01 05:55:20;;;;;;;17.45;10.00;;;1.20;80.90;;;;;;5115901;28;20559;-66
2022/03/01 05:57:47;;;;;;;18.90;10.60;;;1.20;81.40;;;;;;5115706;28;20308;-66
2022/03/01 06:00:16;;;;;;;15.13;10.32;;;1.20;81.30;;;;;;5115831;28;20205;-66
2022/03/01 06:02:45;;;;;;;18.65;11.05;;;1.10;81.70;;;;;;5115802;28;20566;-66
2022/03/01 06:05:14;;;;;;;17.73;11.30;;;1.00;82.80;;;;;;5115609;28;20772;-67
2022/03/01 06:07:41;;;;;;;18.13;10.73;;;1.00;83.30;;;;;;5115669;28;20225;-67
2022/03/01 06:10:09;;;;;;;20.25;11.80;;;1.10;82.70;;;;;;5115794;28;20212;-67
2022/03/01 06:12:36;;;;;;;17.00;10.82;;;1.00;82.90;;;;;;5116492;28;20208;-66
2022/03/01 06:15:04;;;;;;;19.98;12.18;;;0.90;82.90;;;;;;5115883;28;20203;-67
2022/03/01 06:17:31;;;;;;;20.65;11.25;;;1.00;84.10;;;;;;5115576;28;20231;-66
2022/03/01 06:19:58;;;;;;;18.15;11.10;;;1.10;84.30;;;;;;5115446;28;20268;-67
2022/03/01 06:22:26;;;;;;;17.70;11.25;;;1.20;83.50;;;;;;5115262;28;20738;-67
2022/03/01 06:24:54;;;;;;;16.98;10.32;;;1.10;83.40;;;;;;5115311;28;20228;-67
2022/03/01 06:27:21;;;;;;;18.88;11.80;;;1.20;83.00;;;;;;5114933;28;20248;-67
2022/03/01 06:29:48;;;;;;;17.23;10.85;;;1.30;83.10;;;;;;5115054;28;20205;-66
2022/03/01 06:32:15;;;;;;;18.58;11.15;;;1.30;83.30;;;;;;5115050;28;20693;-67
2022/03/01 06:34:42;;;;;;;17.60;10.75;;;1.20;83.40;;;;;;5115167;28;20613;-67
2022/03/01 06:37:13;;;;;;;17.40;11.35;;;1.20;83.40;;;;;;5114955;28;20227;-67
2022/03/01 06:39:42;;;;;;;17.75;11.63;;;1.10;83.50;;;;;;5115020;28;20271;-67
2022/03/01 06:42:09;;;;;;;18.20;12.40;;;1.10;83.50;;;;;;5114655;28;20208;-67
2022/03/01 06:44:36;;;;;;;16.05;10.80;;;1.20;82.90;;;;;;5114362;28;20224;-67
2022/03/01 06:47:04;;;;;;;18.58;11.48;;;1.30;82.90;;;;;;5114817;28;20292;-67
2022/03/01 06:49:31;;;;;;;18.90;11.13;;;1.30;83.30;;;;;;5114874;28;20633;-67
2022/03/01 06:51:59;;;;;;;18.35;11.82;;;1.30;82.70;;;;;;5114750;28;20596;-67
2022/03/01 06:54:26;;;;;;;17.77;11.43;;;1.30;82.20;;;;;;5115027;28;20562;-66
2022/03/01 06:56:54;;;;;;;18.25;12.35;;;1.30;82.10;;;;;;5114848;28;20204;-67
2022/03/01 06:59:21;;;;;;;21.20;12.68;;;1.20;83.50;;;;;;5114464;28;20308;-67
2022/03/01 07:01:48;;;;;;;19.00;12.35;;;1.20;84.10;;;;;;5114560;28;20206;-67
2022/03/01 07:04:15;;;;;;;19.98;13.25;;;1.30;84.80;;;;;;5114540;28;20565;-67
2022/03/01 07:06:41;;;;;;;19.75;12.55;;;1.30;85.30;;;;;;5114661;28;20201;-67
2022/03/01 07:09:09;;;;;;;18.50;12.40;;;1.30;86.00;;;;;;5114268;28;20770;-67
2022/03/01 07:11:36;;;;;;;22.60;12.60;;;1.30;85.10;;;;;;5114303;28;20201;-67
2022/03/01 07:14:04;;;;;;;19.40;11.88;;;1.30;84.60;;;;;;5114512;28;20201;-67
2022/03/01 07:16:31;;;;;;;18.55;12.60;;;1.40;84.60;;;;;;5114499;28;20212;-67
2022/03/01 07:18:59;;;;;;;18.38;13.30;;;1.40;84.40;;;;;;5114292;28;20665;-67
2022/03/01 07:21:26;;;;;;;22.90;14.13;;;1.40;85.40;;;;;;5114198;28;20685;-67
2022/03/01 07:23:53;;;;;;;21.45;13.30;;;1.40;86.00;;;;;;5114392;27;20288;-67
2022/03/01 07:26:20;;;;;;;19.70;12.95;;;1.30;86.20;;;;;;5117001;27;20224;-68
2022/03/01 07:28:46;;;;;;;25.23;13.20;;;1.20;87.10;;;;;;5130614;27;20232;-69
2022/03/01 07:31:15;;;;;;;20.10;13.00;;;1.10;85.80;;;;;;5133430;27;20205;-67
2022/03/01 07:33:43;;;;;;;20.83;13.05;;;1.10;86.70;;;;;;5133625;27;20200;-65
2022/03/01 07:36:10;;;;;;;21.85;13.95;;;1.10;86.70;;;;;;5133950;27;20197;-65
2022/03/01 07:38:37;;;;;;;25.40;14.45;;;1.20;87.50;;;;;;5133672;27;20335;-65
2022/03/01 07:41:03;;;;;;;24.30;14.10;;;1.30;87.80;;;;;;5133123;27;20201;-66
2022/03/01 07:43:30;;;;;;;24.92;14.23;;;1.40;88.00;;;;;;5133671;28;20197;-66
2022/03/01 07:45:57;;;;;;;22.00;14.00;;;1.40;87.40;;;;;;5133465;27;20228;-65
2022/03/01 07:48:25;;;;;;;24.30;13.45;;;1.50;87.50;;;;;;5133484;28;20229;-66
2022/03/01 07:50:52;;;;;;;21.90;13.52;;;1.50;86.40;;;;;;5133705;27;20201;-65
2022/03/01 07:53:19;;;;;;;23.30;12.85;;;1.50;85.10;;;;;;5133790;28;20535;-66
2022/03/01 07:55:46;;;;;;;24.73;14.35;;;1.50;85.30;;;;;;5137252;27;20196;-66
2022/03/01 07:58:13;;;;;;;16.65;11.13;;;1.40;86.10;;;;;;5137897;27;20232;-66
2022/03/01 08:00:39;;;;;;;21.10;13.20;;;1.50;84.30;;;;;;5137888;27;20204;-66
2022/03/01 08:03:06;;;;;;;17.27;11.63;;;1.60;83.50;;;;;;5138047;27;20601;-66
2022/03/01 08:05:35;;;;;;;20.20;12.85;;;1.60;84.00;;;;;;5138326;27;20213;-66
2022/03/01 08:08:01;;;;;;;19.60;11.85;;;1.70;83.10;;;;;;5137576;27;20226;-66
2022/03/01 08:10:28;;;;;;;20.13;12.00;;;1.70;82.00;;;;;;5137431;27;20200;-66
2022/03/01 08:12:56;;;;;;;21.02;11.23;;;1.70;81.50;;;;;;5137450;27;20205;-66
2022/03/01 08:15:25;;;;;;;20.70;12.55;;;1.80;81.20;;;;;;5137526;27;20228;-66
2022/03/01 08:17:54;;;;;;;17.30;12.95;;;1.90;81.20;;;;;;5137411;27;20628;-66
2022/03/01 08:20:22;;;;;;;19.50;12.88;;;1.90;81.50;;;;;;5137413;27;20208;-66
2022/03/01 08:22:51;;;;;;;20.30;12.57;;;2.00;80.80;;;;;;5137534;27;20566;-66
2022/03/01 08:25:19;;;;;;;19.95;12.48;;;2.10;79.80;;;;;;5137301;27;20217;-66
2022/03/01 08:27:46;;;;;;;17.75;11.60;;;2.10;79.90;;;;;;5137006;27;20243;-66
2022/03/01 08:30:13;;;;;;;17.83;11.70;;;2.20;79.80;;;;;;5136646;27;20578;-67
2022/03/01 08:32:40;;;;;;;24.25;14.30;;;2.20;79.00;;;;;;5137211;27;20750;-66
2022/03/01 08:35:07;;;;;;;18.15;11.70;;;2.30;79.40;;;;;;5136958;27;20273;-66
2022/03/01 08:37:34;;;;;;;22.45;12.93;;;2.30;78.70;;;;;;5136498;27;20227;-65
2022/03/01 08:40:03;;;;;;;17.48;13.10;;;2.40;79.10;;;;;;5136420;27;20626;-65
2022/03/01 08:42:30;;;;;;;20.33;13.05;;;2.40;79.60;;;;;;5136732;27;20658;-65
2022/03/01 08:44:57;;;;;;;20.73;12.77;;;2.50;78.30;;;;;;5136601;27;20220;-67
2022/03/01 08:47:26;;;;;;;19.30;13.35;;;2.50;77.50;;;;;;5136586;27;20320;-67
2022/03/01 08:49:53;;;;;;;15.43;10.23;;;2.60;77.40;;;;;;5137591;27;20593;-67
2022/03/01 08:52:20;;;;;;;17.83;12.10;;;2.70;78.10;;;;;;5137815;27;20197;-67
2022/03/01 08:54:46;;;;;;;16.88;11.82;;;2.70;77.30;;;;;;5137972;27;20205;-66
2022/03/01 08:57:16;;;;;;;18.02;11.27;;;2.70;78.00;;;;;;5137753;27;20627;-66
2022/03/01 08:59:42;;;;;;;20.75;12.23;;;2.80;76.50;;;;;;5137512;27;20205;-67
2022/03/01 09:02:09;;;;;;;19.25;12.27;;;2.80;76.00;;;;;;5137611;27;20207;-66
2022/03/01 09:04:37;;;;;;;22.95;12.55;;;2.90;74.90;;;;;;5137471;27;20584;-66
2022/03/01 09:07:04;;;;;;;15.35;12.35;;;2.90;76.10;;;;;;5136222;27;20686;-66
2022/03/01 09:09:31;;;;;;;18.50;12.52;;;3.00;76.60;;;;;;5137542;27;20197;-66
2022/03/01 09:11:58;;;;;;;15.63;11.93;;;2.90;76.10;;;;;;5137261;27;20197;-66
2022/03/01 09:14:26;;;;;;;18.55;12.00;;;2.90;75.30;;;;;;5137534;27;20201;-66
2022/03/01 09:16:53;;;;;;;19.88;13.40;;;2.90;74.60;;;;;;5137144;27;20561;-66
2022/03/01 09:19:20;;;;;;;18.08;11.70;;;3.10;75.20;;;;;;5137295;27;20248;-66
2022/03/01 09:21:47;;;;;;;15.30;11.32;;;3.10;75.40;;;;;;5136875;27;20208;-66
2022/03/01 09:24:14;;;;;;;15.60;11.50;;;3.10;75.20;;;;;;5137187;27;20204;-66
2022/03/01 09:26:41;;;;;;;19.95;12.27;;;3.20;73.40;;;;;;5136968;27;20555;-66
2022/03/01 09:29:08;;;;;;;16.25;12.07;;;3.20;74.60;;;;;;5136849;27;20698;-66
2022/03/01 09:31:36;;;;;;;16.00;10.88;;;3.20;73.80;;;;;;5136923;27;20197;-66
2022/03/01 09:34:03;;;;;;;16.10;11.98;;;3.30;72.90;;;;;;5137035;27;20292;-66
2022/03/01 09:36:30;;;;;;;18.15;12.15;;;3.40;73.10;;;;;;5136891;27;20287;-66
2022/03/01 09:38:57;;;;;;;15.35;11.27;;;3.40;73.30;;;;;;5136879;27;20236;-66
2022/03/01 09:41:24;;;;;;;16.02;11.25;;;3.40;70.70;;;;;;5136798;27;20202;-66
2022/03/01 09:43:54;;;;;;;15.85;11.40;;;3.60;71.50;;;;;;5136797;27;20201;-66
2022/03/01 09:46:21;;;;;;;13.05;8.38;;;3.60;72.40;;;;;;5136843;27;20229;-66
2022/03/01 09:48:49;;;;;;;14.80;10.43;;;3.70;70.80;;;;;;5136566;27;20220;-66
2022/03/01 09:51:17;;;;;;;13.73;10.60;;;3.70;69.90;;;;;;5136571;27;20291;-66
2022/03/01 09:53:46;;;;;;;16.80;11.52;;;3.90;69.90;;;;;;5136707;27;20200;-66
2022/03/01 09:56:14;;;;;;;16.52;11.25;;;3.90;68.50;;;;;;5136528;27;20196;-66
2022/03/01 09:58:41;;;;;;;16.23;10.00;;;4.00;70.40;;;;;;5136529;27;20307;-66
2022/03/01 10:01:08;;;;;;;13.98;11.13;;;4.10;68.00;;;;;;5136159;27;20659;-66
2022/03/01 10:03:36;;;;;;;16.80;11.07;;;4.20;65.90;;;;;;5136687;27;20204;-66
2022/03/01 10:06:12;;;;;;;15.90;10.50;;;4.50;66.60;;;;;;5136570;27;20224;-66
2022/03/01 10:08:40;;;;;;;19.35;11.93;;;4.70;66.60;;;;;;5136497;27;20274;-67
2022/03/01 10:11:07;;;;;;;15.68;11.00;;;4.90;65.30;;;;;;5135914;27;20209;-66
2022/03/01 10:13:38;;;;;;;15.30;11.07;;;5.00;63.90;;;;;;5136221;27;20204;-66
2022/03/01 10:16:07;;;;;;;13.02;10.20;;;5.20;63.30;;;;;;5136269;27;20287;-67
2022/03/01 10:18:36;;;;;;;15.60;11.07;;;5.60;62.90;;;;;;5135806;27;20221;-67
2022/03/01 10:21:05;;;;;;;12.90;10.25;;;5.90;60.50;;;;;;5135932;27;20207;-67
2022/03/01 10:23:34;;;;;;;14.52;10.80;;;6.40;59.20;;;;;;5136125;27;20224;-67
2022/03/01 10:26:12;;;;;;;15.98;10.95;;;6.80;57.10;;;;;;5135875;27;20227;-67
2022/03/01 10:28:40;;;;;;;15.85;10.15;;;7.20;56.90;;;;;;5136012;27;20281;-67
2022/03/01 10:31:13;;;;;;;13.00;10.00;;;7.80;57.50;;;;;;5135681;27;20204;-67
2022/03/01 10:33:40;;;;;;;16.30;10.75;;;8.00;54.60;;;;;;5135970;27;20249;-67
2022/03/01 10:36:07;;;;;;;13.93;10.20;;;8.30;52.80;;;;;;5135840;27;20239;-67
2022/03/01 10:38:38;;;;;;;14.98;11.35;;;8.10;52.90;;;;;;5135618;27;20221;-67
2022/03/01 10:41:06;;;;;;;15.00;11.10;;;8.60;53.70;;;;;;5135591;27;20242;-67
2022/03/01 10:43:33;;;;;;;13.00;10.27;;;9.00;52.00;;;;;;5135749;27;20201;-67
2022/03/01 10:46:05;;;;;;;15.20;10.98;;;9.00;50.30;;;;;;5135867;27;20646;-67
2022/03/01 10:48:35;;;;;;;12.60;10.68;;;9.20;50.20;;;;;;5135653;27;20220;-67
2022/03/01 10:51:03;;;;;;;18.92;10.13;;;9.30;49.40;;;;;;5135359;27;20677;-67
2022/03/01 10:53:32;;;;;;;13.80;9.80;;;9.50;50.50;;;;;;5135678;27;20205;-67
2022/03/01 10:56:05;;;;;;;14.30;10.95;;;9.60;48.90;;;;;;5135899;27;20558;-66
2022/03/01 10:58:32;;;;;;;14.38;9.50;;;9.60;48.90;;;;;;5135319;27;20749;-67
2022/03/01 11:00:59;;;;;;;15.50;10.60;;;9.20;47.60;;;;;;5135283;27;20197;-67
2022/03/01 11:03:26;;;;;;;14.48;10.63;;;9.00;48.60;;;;;;5135327;27;20203;-66
2022/03/01 11:05:55;;;;;;;14.07;10.75;;;8.60;48.60;;;;;;5135125;27;20266;-67
2022/03/01 11:08:23;;;;;;;14.93;10.82;;;8.50;49.60;;;;;;5134987;27;20594;-67
2022/03/01 11:10:52;;;;;;;12.30;9.98;;;8.10;49.30;;;;;;5134824;27;20196;-66
2022/03/01 11:13:24;;;;;;;12.02;10.20;;;8.00;49.90;;;;;;5135495;27;20200;-67
2022/03/01 11:16:14;;;;;;;11.95;9.57;;;8.10;48.60;;;;;;5135134;27;20193;-66
2022/03/01 11:18:51;;;;;;;12.60;9.25;;;8.50;48.90;;;;;;5135379;27;20221;-67
2022/03/01 11:21:19;;;;;;;10.43;9.32;;;9.10;48.00;;;;;;5135231;27;20216;-67
2022/03/01 11:23:48;;;;;;;13.55;9.15;;;9.80;48.40;;;;;;5134955;27;20201;-67
2022/03/01 11:26:16;;;;;;;9.93;8.52;;;10.90;45.90;;;;;;5134556;27;20213;-68
2022/03/01 11:28:53;;;;;;;12.73;9.82;;;11.80;43.00;;;;;;5134142;27;20227;-67
2022/03/01 11:31:21;;;;;;;13.50;10.48;;;12.20;40.00;;;;;;5134700;27;20206;-67
2022/03/01 11:33:57;;;;;;;11.90;9.40;;;12.50;40.50;;;;;;5134776;27;20200;-67
2022/03/01 11:36:27;;;;;;;10.38;8.80;;;13.00;39.10;;;;;;5134996;27;20200;-67
2022/03/01 11:38:54;;;;;;;10.98;9.48;;;13.50;38.80;;;;;;5134871;27;20228;-67
2022/03/01 11:41:22;;;;;;;10.40;9.15;;;13.90;39.00;;;;;;5134452;27;20293;-67
2022/03/01 11:43:56;;;;;;;10.90;9.50;;;13.80;38.50;;;;;;5134760;27;20231;-67
2022/03/01 11:46:23;;;;;;;10.93;9.70;;;13.30;38.10;;;;;;5134615;27;20690;-67
2022/03/01 11:48:55;;;;;;;11.32;9.32;;;13.10;38.00;;;;;;5134670;27;20235;-67
2022/03/01 11:51:33;;;;;;;11.30;9.57;;;12.60;37.70;;;;;;5134258;27;20574;-67
2022/03/01 11:54:04;;;;;;;12.05;10.73;;;12.30;38.30;;;;;;5134604;27;20187;-67
2022/03/01 11:56:31;;;;;;;10.68;9.23;;;11.80;38.40;;;;;;5134663;28;20193;-67
2022/03/01 11:59:05;;;;;;;12.75;10.50;;;11.10;39.60;;;;;;5134272;27;20227;-67
2022/03/01 12:01:33;;;;;;;11.80;9.85;;;11.00;40.90;;;;;;5134409;28;20295;-67
2022/03/01 12:04:02;;;;;;;12.95;10.45;;;11.00;41.10;;;;;;5134513;27;20207;-67
2022/03/01 12:06:30;;;;;;;12.70;9.93;;;11.20;40.70;;;;;;5134546;28;20224;-67
2022/03/01 12:08:59;;;;;;;12.13;9.75;;;10.60;40.20;;;;;;5134794;27;20224;-67
2022/03/01 12:11:34;;;;;;;11.82;10.45;;;10.20;40.60;;;;;;5134610;27;20548;-67
2022/03/01 12:14:08;;;;;;;13.05;9.95;;;10.40;41.80;;;;;;5134753;28;20196;-67
2022/03/01 12:16:35;;;;;;;13.35;10.43;;;10.40;42.40;;;;;;5134664;27;20197;-67
2022/03/01 12:19:11;;;;;;;12.43;9.70;;;10.80;41.80;;;;;;5134492;28;20710;-67
2022/03/01 12:21:39;;;;;;;12.63;10.30;;;11.50;42.00;;;;;;5134198;27;20203;-67
2022/03/01 12:24:08;;;;;;;12.43;10.20;;;11.50;40.60;;;;;;5134357;28;20287;-67
2022/03/01 12:26:43;;;;;;;12.77;11.10;;;11.80;40.20;;;;;;5134123;28;20220;-67
2022/03/01 12:29:13;;;;;;;12.68;10.70;;;11.90;39.00;;;;;;5134053;27;20252;-67
2022/03/01 12:31:40;;;;;;;13.07;11.02;;;12.40;39.10;;;;;;5134147;28;20201;-67
2022/03/01 12:34:08;;;;;;;12.68;10.60;;;12.00;38.30;;;;;;5134145;28;20206;-67
2022/03/01 12:36:37;;;;;;;13.05;10.05;;;11.70;38.20;;;;;;5134360;28;20197;-67
2022/03/01 12:39:06;;;;;;;12.70;10.40;;;11.30;38.50;;;;;;5134218;28;20217;-67